Time;durP1;ratioP1;P1;durP2;ratioP2;P2;SDS_P1;SDS_P2;PMS_P1;PMS_P2;Temp;Humidity;BMP_temperature;BMP_pressure;BME280_temperature;BME280_humidity;BME280_pressure;Samples;Min_cycle;Max_cycle;Signal;HPM_P1;HPM_P2
2022/10/04 00:00:42;;;;;;;20.10;10.50;;;10.50;99.90;;;;;;5048401;28;20071;-51
2022/10/04 00:03:39;;;;;;;23.38;11.25;;;10.60;99.90;;;;;;5048072;28;20503;-49
2022/10/04 00:06:22;;;;;;;19.08;11.50;;;10.70;99.90;;;;;;5044828;28;20057;-52
2022/10/04 00:09:25;;;;;;;19.10;10.10;;;10.70;99.90;;;;;;5047870;28;20589;-49
2022/10/04 00:11:54;;;;;;;26.90;10.45;;;11.30;99.90;;;;;;5026035;28;20494;-50
2022/10/04 00:14:37;;;;;;;19.45;11.52;;;10.50;99.90;;;;;;5047612;28;20158;-51
2022/10/04 00:17:19;;;;;;;20.08;11.05;;;10.70;99.90;;;;;;5047155;28;20060;-49
2022/10/04 00:19:49;;;;;;;17.90;10.25;;;10.70;99.90;;;;;;5047621;28;20041;-48
2022/10/04 00:22:21;;;;;;;21.35;10.65;;;10.70;99.90;;;;;;5047612;28;20052;-48
2022/10/04 00:25:07;;;;;;;24.52;11.23;;;10.70;99.90;;;;;;5048202;28;20056;-50
2022/10/04 00:27:34;;;;;;;19.33;11.00;;;11.50;99.90;;;;;;5040074;28;20526;-50
2022/10/04 00:30:03;;;;;;;21.35;12.23;;;10.60;99.90;;;;;;5047666;28;20055;-48
2022/10/04 00:32:38;;;;;;;20.50;12.52;;;10.60;99.90;;;;;;5047211;28;20502;-51
2022/10/04 00:35:24;;;;;;;28.38;13.50;;;10.70;99.90;;;;;;5047504;28;20345;-47
2022/10/04 00:38:07;;;;;;;31.35;13.98;;;11.40;99.90;;;;;;5047083;28;20033;-48
2022/10/04 00:40:54;;;;;;;19.38;12.43;;;10.70;99.90;;;;;;5047214;28;20044;-48
2022/10/04 00:43:28;;;;;;;23.73;13.45;;;10.70;99.90;;;;;;5039817;28;20152;-48
2022/10/04 00:46:04;;;;;;;25.75;13.80;;;10.70;99.90;;;;;;5046826;28;20048;-48
2022/10/04 00:48:43;;;;;;;22.10;12.18;;;10.70;99.90;;;;;;5046636;28;20045;-53
2022/10/04 00:51:26;;;;;;;21.15;13.73;;;10.70;99.90;;;;;;5046529;28;20044;-50
2022/10/04 00:54:13;;;;;;;27.42;14.48;;;10.70;99.90;;;;;;5046246;28;20659;-49
2022/10/04 00:56:50;;;;;;;22.98;13.68;;;10.60;99.90;;;;;;5046106;28;20049;-52
2022/10/04 00:59:23;;;;;;;26.17;13.88;;;10.60;99.90;;;;;;5046545;28;20048;-48
2022/10/04 01:01:55;;;;;;;23.77;13.13;;;10.60;99.90;;;;;;5046607;28;20044;-48
2022/10/04 01:04:30;;;;;;;30.38;14.85;;;10.60;99.90;;;;;;5046958;28;20159;-48
2022/10/04 01:07:01;;;;;;;27.55;12.52;;;10.60;99.90;;;;;;5047075;28;20056;-50
2022/10/04 01:09:28;;;;;;;27.92;14.45;;;10.60;99.90;;;;;;5046468;28;20056;-51
2022/10/04 01:12:04;;;;;;;28.33;13.82;;;10.60;99.90;;;;;;5046658;28;20041;-53
2022/10/04 01:14:39;;;;;;;27.08;13.27;;;10.60;99.90;;;;;;5046618;28;20045;-48
2022/10/04 01:17:07;;;;;;;29.08;13.88;;;10.90;99.90;;;;;;5046335;28;20064;-52
2022/10/04 01:19:33;;;;;;;24.88;13.27;;;11.10;99.90;;;;;;5046327;28;20052;-52
2022/10/04 01:22:11;;;;;;;24.83;12.90;;;10.60;99.90;;;;;;5046428;28;20513;-49
2022/10/04 01:24:42;;;;;;;24.25;14.18;;;10.60;99.90;;;;;;5046371;28;20115;-49
2022/10/04 01:27:30;;;;;;;24.90;14.23;;;10.50;99.90;;;;;;5047237;28;20116;-48
2022/10/04 01:29:57;;;;;;;19.88;12.00;;;10.50;99.90;;;;;;5047148;28;20045;-52
2022/10/04 01:32:24;;;;;;;23.83;13.88;;;10.40;99.90;;;;;;5046917;28;20134;-48
2022/10/04 01:34:50;;;;;;;26.52;14.82;;;10.50;99.90;;;;;;5046699;28;20044;-52
2022/10/04 01:37:16;;;;;;;26.90;13.70;;;10.40;99.90;;;;;;5046925;28;20383;-49
2022/10/04 01:39:41;;;;;;;27.00;14.57;;;10.40;99.90;;;;;;5046391;28;20128;-49
2022/10/04 01:42:36;;;;;;;25.83;14.35;;;10.40;99.90;;;;;;5046722;28;20048;-49
2022/10/04 01:45:09;;;;;;;30.00;14.77;;;10.40;99.90;;;;;;5042105;28;20110;-50
2022/10/04 01:47:47;;;;;;;26.13;14.10;;;10.40;99.90;;;;;;5045613;28;20123;-49
2022/10/04 01:50:19;;;;;;;27.50;14.38;;;10.40;99.90;;;;;;5045682;28;20033;-50
2022/10/04 01:52:57;;;;;;;27.80;14.77;;;10.40;99.90;;;;;;5045211;28;20112;-52
2022/10/04 01:55:33;;;;;;;29.83;13.43;;;10.70;99.90;;;;;;5046273;28;20037;-48
2022/10/04 01:58:10;;;;;;;31.02;14.65;;;10.40;99.90;;;;;;5046033;28;20140;-49
2022/10/04 02:00:54;;;;;;;28.77;14.60;;;10.30;99.90;;;;;;5046352;28;20055;-48
2022/10/04 02:03:28;;;;;;;29.20;14.50;;;10.30;99.90;;;;;;5045132;28;20428;-48
2022/10/04 02:05:59;;;;;;;28.85;14.48;;;11.20;99.90;;;;;;5046272;28;20049;-51
2022/10/04 02:08:30;;;;;;;24.52;14.23;;;10.30;99.90;;;;;;5046403;28;20045;-52
2022/10/04 02:10:56;;;;;;;23.75;14.23;;;10.40;99.90;;;;;;5046201;28;20121;-48
2022/10/04 02:13:28;;;;;;;29.98;15.15;;;10.40;99.90;;;;;;5044692;28;20045;-51
2022/10/04 02:15:54;;;;;;;27.83;14.57;;;11.20;99.90;;;;;;5045733;28;20053;-51
2022/10/04 02:18:22;;;;;;;29.30;16.13;;;10.30;99.90;;;;;;5046023;28;20048;-48
2022/10/04 02:20:50;;;;;;;31.08;15.13;;;11.00;99.90;;;;;;5045427;28;20114;-50
2022/10/04 02:23:18;;;;;;;28.20;14.88;;;10.40;99.90;;;;;;5045487;28;20163;-49
2022/10/04 02:25:44;;;;;;;30.40;14.93;;;10.40;99.90;;;;;;5045801;28;20079;-53
2022/10/04 02:28:12;;;;;;;34.60;15.30;;;10.30;99.90;;;;;;5045863;28;20128;-47
2022/10/04 02:30:42;;;;;;;25.42;14.32;;;11.10;99.90;;;;;;5045780;28;20094;-49
2022/10/04 02:33:09;;;;;;;27.40;14.07;;;10.40;99.90;;;;;;5045394;28;20049;-52
2022/10/04 02:35:46;;;;;;;31.13;14.52;;;10.40;99.90;;;;;;5044844;28;20526;-53
2022/10/04 02:38:21;;;;;;;30.45;15.20;;;10.40;99.90;;;;;;5044926;28;20359;-53
2022/10/04 02:41:04;;;;;;;25.85;14.50;;;10.30;99.90;;;;;;5045190;28;20037;-49
2022/10/04 02:43:40;;;;;;;29.50;14.35;;;10.30;99.90;;;;;;5045056;28;20072;-48
2022/10/04 02:46:16;;;;;;;27.30;14.02;;;10.30;99.90;;;;;;5045080;28;20084;-52
2022/10/04 02:49:00;;;;;;;24.05;14.45;;;10.20;99.90;;;;;;5045294;28;20045;-48
2022/10/04 02:51:36;;;;;;;28.92;15.98;;;10.10;99.90;;;;;;5045294;28;20321;-48
2022/10/04 02:54:32;;;;;;;31.85;14.48;;;10.30;99.90;;;;;;5044926;28;20076;-51
2022/10/04 02:56:59;;;;;;;26.92;14.30;;;10.20;99.90;;;;;;5043464;28;20084;-50
2022/10/04 02:59:26;;;;;;;25.80;14.23;;;10.20;99.90;;;;;;5044980;28;20147;-49
2022/10/04 03:01:57;;;;;;;24.17;14.45;;;10.10;99.90;;;;;;5045037;28;20045;-52
2022/10/04 03:04:30;;;;;;;24.35;14.45;;;9.90;99.90;;;;;;5045457;28;20124;-53
2022/10/04 03:07:00;;;;;;;25.48;14.07;;;10.90;99.90;;;;;;5048742;28;20099;-51
2022/10/04 03:09:27;;;;;;;25.17;14.00;;;10.00;99.90;;;;;;5048980;28;20080;-50
2022/10/04 03:11:53;;;;;;;24.50;14.15;;;10.00;99.90;;;;;;5047626;28;20045;-48
2022/10/04 03:14:22;;;;;;;28.70;14.82;;;9.90;99.90;;;;;;5049378;28;20478;-50
2022/10/04 03:16:54;;;;;;;24.92;14.45;;;10.80;99.90;;;;;;5048963;28;20057;-48
2022/10/04 03:19:26;;;;;;;25.27;15.70;;;10.30;99.90;;;;;;5048595;28;20562;-50
2022/10/04 03:21:56;;;;;;;26.25;15.90;;;10.10;99.90;;;;;;5048655;28;20368;-48
2022/10/04 03:24:31;;;;;;;24.27;15.05;;;10.10;99.90;;;;;;5048877;28;20486;-49
2022/10/04 03:27:00;;;;;;;29.15;16.77;;;10.40;99.90;;;;;;5048437;28;20191;-48
2022/10/04 03:29:29;;;;;;;25.98;16.08;;;10.20;99.90;;;;;;5048770;28;20116;-48
2022/10/04 03:31:57;;;;;;;24.45;14.38;;;10.30;99.90;;;;;;5048480;28;20045;-52
2022/10/04 03:34:32;;;;;;;25.67;16.02;;;10.20;99.90;;;;;;5048634;28;20554;-48
2022/10/04 03:36:59;;;;;;;25.35;14.32;;;10.50;99.90;;;;;;5048987;28;20139;-52
2022/10/04 03:39:35;;;;;;;24.65;15.38;;;10.10;99.90;;;;;;5048693;28;20060;-50
2022/10/04 03:42:06;;;;;;;21.48;15.10;;;10.20;99.90;;;;;;5048251;28;20788;-52
2022/10/04 03:44:33;;;;;;;28.60;15.15;;;10.20;99.90;;;;;;5047740;28;20491;-48
2022/10/04 03:47:00;;;;;;;26.02;16.98;;;10.10;99.90;;;;;;5047767;28;20048;-51
2022/10/04 03:49:35;;;;;;;25.00;15.05;;;11.10;99.90;;;;;;5047779;28;20055;-49
2022/10/04 03:52:02;;;;;;;21.45;14.13;;;10.20;99.90;;;;;;5047859;28;20390;-51
2022/10/04 03:54:29;;;;;;;29.95;15.98;;;10.10;99.90;;;;;;5047810;28;20055;-49
2022/10/04 03:56:57;;;;;;;24.25;14.60;;;10.20;99.90;;;;;;5047926;28;20040;-48
2022/10/04 03:59:25;;;;;;;25.42;14.90;;;10.10;99.90;;;;;;5048292;28;20056;-48
2022/10/04 04:02:05;;;;;;;24.77;15.02;;;10.10;99.90;;;;;;5047286;28;20565;-48
2022/10/04 04:05:13;;;;;;;27.25;15.40;;;10.10;99.90;;;;;;5046121;28;20104;-49
2022/10/04 04:07:45;;;;;;;26.17;15.15;;;10.10;99.90;;;;;;5048315;28;20048;-48
2022/10/04 04:10:22;;;;;;;23.83;14.95;;;10.10;99.90;;;;;;5048909;28;20048;-49
2022/10/04 04:12:56;;;;;;;24.50;15.10;;;10.00;99.90;;;;;;5045899;28;20081;-49
2022/10/04 04:15:27;;;;;;;25.75;15.45;;;10.00;99.90;;;;;;5037500;28;20063;-47
2022/10/04 04:17:54;;;;;;;22.15;14.18;;;10.60;99.90;;;;;;5044112;28;20367;-39
2022/10/04 04:20:33;;;;;;;27.42;15.40;;;10.20;99.90;;;;;;5045795;28;20049;-43
2022/10/04 04:23:06;;;;;;;24.35;16.10;;;9.90;99.90;;;;;;5046624;28;20068;-41
2022/10/04 04:25:36;;;;;;;31.58;17.50;;;10.30;99.90;;;;;;5045619;28;20045;-44
2022/10/04 04:28:30;;;;;;;25.88;16.10;;;9.90;99.90;;;;;;5046651;28;20041;-43
2022/10/04 04:31:08;;;;;;;26.13;16.35;;;10.00;99.90;;;;;;5047369;28;20049;-44
2022/10/04 04:33:50;;;;;;;26.05;16.95;;;10.00;99.90;;;;;;5048177;28;20048;-44
2022/10/04 04:36:16;;;;;;;28.20;16.17;;;10.40;99.90;;;;;;5048212;28;20071;-44
2022/10/04 04:41:34;;;;;;;30.48;17.88;;;10.30;99.90;;;;;;5035700;28;20080;-43
2022/10/04 04:44:00;;;;;;;26.90;18.63;;;10.80;99.90;;;;;;5048062;28;20076;-43
2022/10/04 04:46:27;;;;;;;31.30;19.10;;;10.00;99.90;;;;;;5047490;28;20551;-43
2022/10/04 04:49:03;;;;;;;26.15;17.13;;;10.00;99.90;;;;;;5047430;28;20391;-43
2022/10/04 04:51:31;;;;;;;31.50;18.63;;;10.00;99.90;;;;;;5047767;28;20041;-44
2022/10/04 04:53:59;;;;;;;33.00;19.65;;;10.00;99.90;;;;;;5046906;28;20120;-43
2022/10/04 04:56:28;;;;;;;29.02;18.75;;;10.30;99.90;;;;;;5047738;28;20542;-43
2022/10/04 04:58:55;;;;;;;28.85;18.05;;;10.00;99.90;;;;;;5047841;28;20041;-44
2022/10/04 05:01:44;;;;;;;32.65;20.17;;;9.90;99.90;;;;;;5047391;28;20053;-43
2022/10/04 05:04:12;;;;;;;31.92;18.77;;;9.90;99.90;;;;;;5047063;28;20047;-44
2022/10/04 05:06:43;;;;;;;33.03;19.02;;;9.70;99.90;;;;;;5047216;28;20533;-44
2022/10/04 05:09:33;;;;;;;27.65;19.50;;;9.60;99.90;;;;;;5047203;28;20060;-43
2022/10/04 05:12:15;;;;;;;34.67;21.15;;;9.80;99.90;;;;;;5046442;28;20084;-44
2022/10/04 05:14:46;;;;;;;31.65;19.63;;;9.90;99.90;;;;;;5046812;28;20398;-43
2022/10/04 05:17:22;;;;;;;29.92;20.23;;;10.40;99.90;;;;;;5046614;28;20124;-44
2022/10/04 05:19:50;;;;;;;35.10;20.02;;;10.20;99.90;;;;;;5047520;28;20049;-43
2022/10/04 05:22:19;;;;;;;36.25;19.90;;;10.20;99.90;;;;;;5047304;28;20102;-43
2022/10/04 05:24:49;;;;;;;37.22;21.13;;;10.50;99.90;;;;;;5045752;28;20044;-44
2022/10/04 05:27:39;;;;;;;31.30;20.15;;;10.00;99.90;;;;;;5046508;28;20053;-43
2022/10/04 05:30:14;;;;;;;35.15;21.02;;;10.20;99.90;;;;;;5046928;28;20585;-43
2022/10/04 05:32:58;;;;;;;36.78;20.52;;;9.80;99.90;;;;;;5046665;28;20576;-43
2022/10/04 05:35:26;;;;;;;33.33;20.02;;;10.00;99.90;;;;;;5046457;28;20434;-43
2022/10/04 05:38:16;;;;;;;37.35;22.02;;;10.40;99.90;;;;;;5046676;28;20040;-44
2022/10/04 05:40:52;;;;;;;28.58;20.25;;;9.70;99.90;;;;;;5047515;28;20041;-44
2022/10/04 05:43:21;;;;;;;35.45;20.13;;;10.30;99.90;;;;;;5047000;28;20037;-44
2022/10/04 05:46:06;;;;;;;34.35;22.00;;;9.90;99.90;;;;;;5047540;28;20041;-44
2022/10/04 05:48:33;;;;;;;33.47;21.10;;;9.50;99.90;;;;;;5047101;28;20053;-44
2022/10/04 05:50:59;;;;;;;34.80;21.30;;;9.70;99.90;;;;;;5047600;28;20174;-44
2022/10/04 05:53:32;;;;;;;36.88;21.33;;;10.60;99.90;;;;;;5047152;28;20045;-44
2022/10/04 05:56:29;;;;;;;37.60;22.52;;;10.20;99.90;;;;;;5047364;28;20375;-43
2022/10/04 05:59:31;;;;;;;35.13;22.73;;;9.60;99.90;;;;;;5046826;28;20487;-44
2022/10/04 06:02:16;;;;;;;39.10;23.08;;;9.50;99.90;;;;;;5047100;28;20410;-43
2022/10/04 06:05:00;;;;;;;38.28;22.92;;;9.40;99.90;;;;;;5046341;28;20407;-45
2022/10/04 06:07:36;;;;;;;36.13;22.73;;;9.60;99.90;;;;;;5047001;28;20052;-44
2022/10/04 06:10:24;;;;;;;37.67;23.77;;;10.00;99.90;;;;;;5046686;28;20386;-45
2022/10/04 06:13:13;;;;;;;44.03;25.65;;;9.40;99.90;;;;;;5046559;28;20045;-45
2022/10/04 06:15:48;;;;;;;36.78;24.27;;;9.60;99.90;;;;;;5046408;28;20132;-46
2022/10/04 06:18:51;;;;;;;41.97;25.85;;;9.70;99.90;;;;;;5046653;28;20080;-45
2022/10/04 06:21:24;;;;;;;38.35;25.45;;;9.30;99.90;;;;;;5044168;28;20048;-47
2022/10/04 06:24:13;;;;;;;41.00;24.98;;;10.20;99.90;;;;;;5045379;28;20053;-45
2022/10/04 06:26:43;;;;;;;35.65;25.08;;;9.30;99.90;;;;;;5046761;28;20049;-46
2022/10/04 06:29:16;;;;;;;48.47;26.88;;;10.10;99.90;;;;;;5046186;28;20041;-45
2022/10/04 06:32:10;;;;;;;39.92;23.98;;;9.40;99.90;;;;;;5046654;28;20068;-46
2022/10/04 06:34:57;;;;;;;38.58;26.17;;;9.40;99.90;;;;;;5046200;28;20048;-46
2022/10/04 06:37:23;;;;;;;40.15;25.48;;;9.50;99.90;;;;;;5046583;28;20637;-45
2022/10/04 06:40:07;;;;;;;44.25;26.83;;;10.30;99.90;;;;;;5048720;28;20120;-46
2022/10/04 06:42:39;;;;;;;37.75;26.02;;;9.60;99.90;;;;;;5050206;28;20051;-45
2022/10/04 06:45:22;;;;;;;35.10;25.67;;;10.10;99.90;;;;;;5049649;28;20044;-44
2022/10/04 06:48:05;;;;;;;40.15;26.17;;;9.50;99.90;;;;;;5049901;28;20059;-45
2022/10/04 06:50:39;;;;;;;40.22;24.92;;;9.80;99.90;;;;;;5049984;28;20513;-45
2022/10/04 06:53:17;;;;;;;39.90;26.23;;;9.60;99.90;;;;;;5049819;28;20127;-45
2022/10/04 06:56:03;;;;;;;39.78;27.70;;;10.50;99.90;;;;;;5049771;28;20106;-45
2022/10/04 06:58:52;;;;;;;35.45;26.30;;;9.70;99.90;;;;;;5049908;28;20076;-44
2022/10/04 07:01:30;;;;;;;37.45;27.10;;;9.80;99.90;;;;;;5049952;28;20041;-44
2022/10/04 07:04:32;;;;;;;37.40;25.55;;;10.00;99.90;;;;;;5049858;28;20063;-44
2022/10/04 07:08:05;;;;;;;35.75;26.77;;;10.10;99.90;;;;;;5026945;28;20083;-44
2022/10/04 07:10:30;;;;;;;41.83;28.35;;;10.50;99.90;;;;;;5048780;28;20124;-45
2022/10/04 07:13:25;;;;;;;38.20;25.10;;;10.90;99.90;;;;;;5050416;28;20410;-46
2022/10/04 07:16:16;;;;;;;35.58;25.42;;;11.10;99.90;;;;;;5045825;28;20136;-44
2022/10/04 07:19:07;;;;;;;32.17;24.67;;;11.30;99.90;;;;;;5050486;28;20130;-44
2022/10/04 07:21:39;;;;;;;34.72;24.50;;;12.00;99.90;;;;;;5044970;28;20391;-47
2022/10/04 07:24:10;;;;;;;28.00;21.33;;;12.10;99.90;;;;;;5050470;28;20047;-43
2022/10/04 07:26:44;;;;;;;22.23;19.13;;;11.90;99.90;;;;;;5050514;28;20131;-46
2022/10/04 07:29:19;;;;;;;22.80;18.90;;;12.30;99.90;;;;;;5047813;28;20053;-43
2022/10/04 07:31:50;;;;;;;23.58;18.25;;;12.40;99.90;;;;;;5049952;28;20056;-44
2022/10/04 07:34:25;;;;;;;31.27;20.08;;;12.40;99.90;;;;;;5050079;28;20045;-43
2022/10/04 07:36:55;;;;;;;29.15;19.75;;;11.90;99.90;;;;;;5050465;28;20044;-44
2022/10/04 07:39:30;;;;;;;23.55;17.45;;;12.70;99.90;;;;;;5049592;28;20410;-44
2022/10/04 07:42:14;;;;;;;22.90;17.05;;;12.20;99.90;;;;;;5049332;28;20074;-44
2022/10/04 07:44:43;;;;;;;23.25;15.77;;;12.60;99.90;;;;;;5049563;28;20045;-45
2022/10/04 07:47:19;;;;;;;19.52;14.73;;;12.90;99.90;;;;;;5049727;28;20098;-44
2022/10/04 07:49:49;;;;;;;21.92;16.00;;;13.00;99.90;;;;;;5048963;28;20045;-46
2022/10/04 07:52:24;;;;;;;20.95;15.88;;;13.00;99.90;;;;;;5048709;28;20041;-47
2022/10/04 07:55:13;;;;;;;19.55;15.20;;;12.90;99.90;;;;;;5048298;28;20120;-45
2022/10/04 07:58:13;;;;;;;19.20;13.98;;;13.00;99.90;;;;;;5048830;28;20041;-47
2022/10/04 08:01:36;;;;;;;24.23;15.00;;;13.10;99.90;;;;;;5048409;28;20589;-46
2022/10/04 08:04:02;;;;;;;;;;;13.30;99.90;;;;;;5033430;28;20053;-46
2022/10/04 08:06:38;;;;;;;19.77;14.48;;;13.60;99.90;;;;;;5048945;28;19920;-47
2022/10/04 08:09:27;;;;;;;16.95;12.38;;;13.90;99.90;;;;;;5047710;28;20052;-47
2022/10/04 08:12:01;;;;;;;21.33;12.32;;;14.30;99.90;;;;;;5049381;28;20382;-47
2022/10/04 08:14:33;;;;;;;16.02;11.68;;;14.60;99.90;;;;;;5049786;28;20069;-43
2022/10/04 08:17:15;;;;;;;20.23;12.00;;;14.70;99.90;;;;;;5037856;28;20061;-44
2022/10/04 08:19:50;;;;;;;16.40;11.50;;;14.80;99.90;;;;;;5030485;28;20053;-43
2022/10/04 08:22:43;;;;;;;18.90;11.68;;;14.90;99.90;;;;;;5028956;28;20076;-43
2022/10/04 08:25:21;;;;;;;13.55;10.73;;;14.90;99.90;;;;;;5027763;28;20057;-44
2022/10/04 08:31:17;;;;;;;12.40;9.60;;;15.10;99.90;;;;;;5029459;28;20470;-45
2022/10/04 08:34:13;;;;;;;15.57;9.73;;;14.90;99.90;;;;;;5029223;28;20053;-46
2022/10/04 08:37:12;;;;;;;14.60;9.40;;;14.80;99.90;;;;;;5029214;28;20049;-46
2022/10/04 08:39:47;;;;;;;13.60;9.60;;;14.50;99.90;;;;;;5028195;28;20045;-46
2022/10/04 08:42:46;;;;;;;16.38;9.88;;;14.40;99.90;;;;;;5028487;28;20132;-44
2022/10/04 08:45:42;;;;;;;14.75;9.00;;;14.30;99.90;;;;;;5025729;28;20045;-45
2022/10/04 08:48:45;;;;;;;13.43;8.77;;;14.30;99.90;;;;;;5026197;28;20049;-46
2022/10/04 08:51:33;;;;;;;17.70;9.60;;;14.40;99.90;;;;;;5025586;28;20041;-45
2022/10/04 08:54:34;;;;;;;16.25;8.73;;;14.60;99.90;;;;;;5024965;28;20511;-44
2022/10/04 08:57:21;;;;;;;12.52;8.43;;;14.70;99.90;;;;;;5025868;28;20041;-46
2022/10/04 09:00:19;;;;;;;10.75;8.27;;;14.80;99.90;;;;;;5025171;28;20049;-45
2022/10/04 09:03:03;;;;;;;12.82;7.60;;;14.90;99.90;;;;;;4986703;28;20053;-46
2022/10/04 09:06:07;;;;;;;13.90;7.78;;;15.00;99.90;;;;;;5025352;28;20124;-46
2022/10/04 09:08:38;;;;;;;10.82;7.85;;;15.10;99.90;;;;;;5025409;28;20484;-46
2022/10/04 09:11:40;;;;;;;11.07;6.63;;;15.20;99.90;;;;;;5024886;28;20037;-46
2022/10/04 09:14:45;;;;;;;13.50;7.33;;;15.30;99.90;;;;;;5024698;28;20124;-47
2022/10/04 09:17:58;;;;;;;10.70;7.10;;;15.50;99.90;;;;;;5024133;28;20061;-46
2022/10/04 09:20:53;;;;;;;11.48;7.38;;;15.60;99.90;;;;;;4935223;29;20047;-47
2022/10/04 09:23:39;;;;;;;12.20;6.88;;;15.70;99.90;;;;;;5024519;28;20060;-47
2022/10/04 09:26:37;;;;;;;12.48;6.78;;;15.80;99.90;;;;;;5025811;28;20099;-47
2022/10/04 09:29:17;;;;;;;9.85;6.18;;;15.80;99.90;;;;;;5024836;28;20159;-39
2022/10/04 09:32:05;;;;;;;12.07;5.63;;;15.90;99.90;;;;;;5024267;28;20111;-38
2022/10/04 09:34:56;;;;;;;10.18;6.18;;;16.10;99.90;;;;;;5024262;28;20045;-41
2022/10/04 09:37:40;;;;;;;9.80;5.63;;;16.10;99.90;;;;;;5024386;28;20046;-40
2022/10/04 09:40:24;;;;;;;13.30;6.45;;;16.20;99.90;;;;;;5024427;28;20041;-39
2022/10/04 09:42:50;;;;;;;12.65;6.13;;;16.20;99.90;;;;;;5024772;28;20049;-38
2022/10/04 09:45:44;;;;;;;10.43;5.18;;;16.10;99.90;;;;;;5026081;28;20048;-40
2022/10/04 09:48:53;;;;;;;14.85;5.80;;;16.20;99.90;;;;;;5026872;28;20049;-41
2022/10/04 09:51:29;;;;;;;13.45;5.75;;;16.20;99.90;;;;;;5023249;28;20054;-41
2022/10/04 09:53:57;;;;;;;10.23;5.82;;;16.30;99.90;;;;;;5027349;28;20041;-40
2022/10/04 09:56:44;;;;;;;10.73;6.63;;;16.30;99.90;;;;;;5026468;28;20458;-40
2022/10/04 09:59:13;;;;;;;10.52;5.65;;;16.40;99.90;;;;;;5026954;28;20045;-41
2022/10/04 10:02:01;;;;;;;9.88;5.50;;;16.40;99.90;;;;;;5026365;28;20050;-41
2022/10/04 10:04:47;;;;;;;7.60;5.03;;;16.50;99.90;;;;;;5026297;28;20575;-39
2022/10/04 10:07:34;;;;;;;9.25;5.13;;;16.50;99.90;;;;;;5025991;28;20037;-39
2022/10/04 10:13:44;;;;;;;11.23;5.25;;;16.50;99.90;;;;;;5026409;28;20083;-40
2022/10/04 10:16:10;;;;;;;10.77;6.20;;;16.60;99.90;;;;;;5026560;28;20065;-42
2022/10/04 10:19:11;;;;;;;11.05;5.63;;;16.60;99.90;;;;;;5026615;28;20049;-40
2022/10/04 10:21:56;;;;;;;10.55;5.60;;;16.60;99.90;;;;;;5026834;28;20053;-40
2022/10/04 10:24:47;;;;;;;12.05;6.70;;;16.70;99.90;;;;;;5026036;28;20178;-41
2022/10/04 10:27:45;;;;;;;12.52;6.88;;;16.60;99.90;;;;;;5025934;28;20045;-41
2022/10/04 10:30:52;;;;;;;10.90;6.30;;;16.70;99.90;;;;;;4984791;28;20115;-40
2022/10/04 10:33:24;;;;;;;11.70;5.90;;;16.70;99.90;;;;;;4954140;28;20180;-42
2022/10/04 10:36:20;;;;;;;8.15;5.13;;;16.70;99.90;;;;;;5025930;28;20092;-42
2022/10/04 10:39:12;;;;;;;12.77;6.43;;;16.90;99.90;;;;;;5025801;28;20454;-40
2022/10/04 10:42:05;;;;;;;9.95;4.68;;;16.70;99.90;;;;;;5025255;28;20095;-39
2022/10/04 10:44:33;;;;;;;;;;;16.70;99.90;;;;;;5026774;28;20041;-40
2022/10/04 10:47:21;;;;;;;10.55;5.00;;;16.70;99.90;;;;;;5026369;28;19924;-40
2022/10/04 10:50:06;;;;;;;9.80;4.30;;;16.70;99.90;;;;;;5025748;28;20088;-40
2022/10/04 10:52:50;;;;;;;8.52;4.70;;;16.70;99.90;;;;;;5026157;28;20056;-40
2022/10/04 10:55:51;;;;;;;9.15;4.35;;;16.80;99.90;;;;;;5026016;28;20033;-41
2022/10/04 10:58:43;;;;;;;8.63;4.10;;;16.70;99.90;;;;;;4946263;29;20043;-40
2022/10/04 11:01:47;;;;;;;7.07;4.95;;;16.70;99.90;;;;;;5023973;28;20068;-40
2022/10/04 11:04:50;;;;;;;8.45;4.55;;;16.70;99.90;;;;;;5026599;28;20504;-40
2022/10/04 11:07:41;;;;;;;11.55;5.07;;;16.70;99.90;;;;;;4983639;28;20061;-40
2022/10/04 11:10:47;;;;;;;10.88;5.05;;;16.70;99.90;;;;;;5026239;28;20045;-41
2022/10/04 11:13:37;;;;;;;14.38;6.00;;;16.70;99.90;;;;;;5026914;28;20037;-40
2022/10/04 11:16:21;;;;;;;10.10;4.40;;;16.70;99.90;;;;;;5026366;28;20068;-40
2022/10/04 11:19:14;;;;;;;10.27;4.57;;;16.70;99.90;;;;;;5025750;28;20500;-40
2022/10/04 11:22:12;;;;;;;14.07;6.53;;;16.70;99.90;;;;;;5026369;28;20045;-39
2022/10/04 11:24:44;;;;;;;9.40;5.28;;;16.70;99.90;;;;;;4994284;28;20064;-40
2022/10/04 11:27:23;;;;;;;11.88;5.18;;;16.60;99.90;;;;;;5029997;28;20037;-39
2022/10/04 11:30:08;;;;;;;10.30;5.05;;;16.60;99.90;;;;;;5030155;28;20120;-40
2022/10/04 11:33:01;;;;;;;9.70;4.63;;;16.70;99.90;;;;;;5029932;28;20041;-40
2022/10/04 11:35:33;;;;;;;11.05;5.15;;;16.60;99.90;;;;;;5029697;28;20064;-41
2022/10/04 11:38:28;;;;;;;8.52;5.15;;;16.70;99.90;;;;;;5030330;28;20038;-40
2022/10/04 11:41:22;;;;;;;11.20;4.60;;;16.70;99.90;;;;;;5029864;28;20069;-40
2022/10/04 11:44:14;;;;;;;10.20;5.07;;;16.70;99.90;;;;;;5029643;28;20041;-39
2022/10/04 11:46:55;;;;;;;9.38;4.53;;;16.70;99.90;;;;;;5029102;28;20816;-39
2022/10/04 11:49:42;;;;;;;9.57;4.72;;;16.80;99.90;;;;;;5028462;28;20053;-39
2022/10/04 11:52:16;;;;;;;6.40;3.78;;;16.80;99.90;;;;;;5028392;28;20048;-39
2022/10/04 11:54:58;;;;;;;9.35;3.80;;;16.80;99.90;;;;;;5028136;28;20037;-42
2022/10/04 11:57:43;;;;;;;10.38;4.50;;;16.80;99.90;;;;;;5028291;28;20098;-41
2022/10/04 12:00:19;;;;;;;7.13;3.25;;;16.80;99.90;;;;;;5028603;28;20053;-40
2022/10/04 12:03:06;;;;;;;9.52;3.72;;;16.80;99.90;;;;;;5028424;28;20053;-40
2022/10/04 12:06:02;;;;;;;7.68;2.90;;;16.80;99.90;;;;;;5028429;28;20752;-41
2022/10/04 12:08:37;;;;;;;7.38;2.50;;;16.70;99.90;;;;;;5028804;28;20050;-40
2022/10/04 12:11:15;;;;;;;8.10;3.60;;;16.70;99.90;;;;;;5028679;28;20067;-41
2022/10/04 12:14:19;;;;;;;8.07;2.83;;;16.60;99.90;;;;;;5028390;28;20087;-40
2022/10/04 12:16:57;;;;;;;6.57;2.50;;;16.50;99.90;;;;;;5028588;28;20057;-40
2022/10/04 12:20:08;;;;;;;7.97;2.95;;;16.50;99.90;;;;;;5028896;28;20071;-40
2022/10/04 12:22:34;;;;;;;8.48;3.53;;;15.70;99.90;;;;;;5029057;28;20041;-42
2022/10/04 12:25:25;;;;;;;8.15;2.60;;;16.50;99.90;;;;;;5028468;28;20041;-40
2022/10/04 12:28:10;;;;;;;9.27;2.87;;;16.50;99.90;;;;;;5028485;28;20084;-40
2022/10/04 12:30:45;;;;;;;7.28;2.42;;;16.60;99.90;;;;;;5028316;28;20603;-40
2022/10/04 12:33:24;;;;;;;7.63;2.28;;;18.40;99.90;;;;;;5028431;28;20115;-40
2022/10/04 12:36:12;;;;;;;6.53;2.58;;;16.60;99.90;;;;;;5028352;28;20033;-40
2022/10/04 12:38:51;;;;;;;5.45;2.15;;;16.60;99.90;;;;;;5028180;28;20049;-40
2022/10/04 12:41:36;;;;;;;7.88;2.45;;;16.60;99.90;;;;;;5027431;28;20161;-41
2022/10/04 12:44:20;;;;;;;6.88;3.50;;;16.60;99.90;;;;;;5027110;28;20041;-40
2022/10/04 12:47:02;;;;;;;10.70;4.00;;;16.50;99.90;;;;;;5027850;28;20056;-41
2022/10/04 12:49:43;;;;;;;;;;;16.50;99.90;;;;;;5028308;28;20056;-41
2022/10/04 12:52:22;;;;;;;8.30;3.28;;;16.50;99.90;;;;;;5028353;28;19925;-39
2022/10/04 12:55:15;;;;;;;6.43;3.33;;;16.50;99.90;;;;;;5028077;28;20048;-39
2022/10/04 12:57:57;;;;;;;5.97;3.20;;;16.50;99.90;;;;;;5027034;28;20041;-40
2022/10/04 13:00:24;;;;;;;9.75;4.32;;;16.50;99.90;;;;;;5027081;28;20162;-39
2022/10/04 13:02:56;;;;;;;9.43;4.32;;;16.40;99.90;;;;;;5027704;28;20472;-40
2022/10/04 13:05:25;;;;;;;7.20;3.20;;;16.40;99.90;;;;;;5027848;28;20045;-39
2022/10/04 13:08:24;;;;;;;5.57;3.00;;;16.40;99.90;;;;;;5028396;28;20041;-40
2022/10/04 13:11:16;;;;;;;9.15;3.80;;;16.40;99.90;;;;;;5028278;28;20052;-41
2022/10/04 13:14:19;;;;;;;11.93;5.03;;;16.40;99.90;;;;;;5027758;28;20044;-41
2022/10/04 13:17:02;;;;;;;8.82;3.92;;;16.30;99.90;;;;;;5026944;28;20091;-39
2022/10/04 13:19:40;;;;;;;11.98;4.20;;;16.30;99.90;;;;;;5027511;28;20725;-40
2022/10/04 13:22:25;;;;;;;8.32;4.03;;;16.30;99.90;;;;;;5026958;28;20121;-40
2022/10/04 13:25:18;;;;;;;7.63;4.65;;;16.30;99.90;;;;;;5026981;28;20049;-40
2022/10/04 13:27:58;;;;;;;10.52;4.05;;;16.30;99.90;;;;;;5027576;28;20041;-42
2022/10/04 13:30:31;;;;;;;10.80;4.18;;;16.20;99.90;;;;;;5027278;28;20038;-39
2022/10/04 13:33:04;;;;;;;8.20;4.20;;;16.20;99.90;;;;;;5026607;28;20084;-39
2022/10/04 13:35:44;;;;;;;9.98;3.92;;;16.20;99.90;;;;;;5025474;28;20128;-39
2022/10/04 13:38:19;;;;;;;10.25;5.00;;;16.10;99.90;;;;;;5026606;28;20099;-39
2022/10/04 13:40:55;;;;;;;10.88;5.03;;;16.10;99.90;;;;;;5026794;28;20037;-40
2022/10/04 13:43:45;;;;;;;7.43;4.70;;;16.10;99.90;;;;;;5026669;28;20128;-40
2022/10/04 13:46:17;;;;;;;11.20;4.65;;;16.00;99.90;;;;;;5026773;28;20138;-40
2022/10/04 13:49:21;;;;;;;7.68;4.35;;;16.00;99.90;;;;;;5026600;28;20790;-40